Time;durP1;ratioP1;P1;durP2;ratioP2;P2;SDS_P1;SDS_P2;PMS_P1;PMS_P2;Temp;Humidity;BMP_temperature;BMP_pressure;BME280_temperature;BME280_humidity;BME280_pressure;Samples;Min_cycle;Max_cycle;Signal;HPM_P1;HPM_P2
2022/07/18 00:01:06;;;;;;;12.27;6.50;;;;;;;17.57;100.00;102550.44;7381420;19;20032;-77
2022/07/18 00:03:37;;;;;;;15.38;6.70;;;;;;;17.53;100.00;102548.63;7381537;19;20500;-77
2022/07/18 00:06:07;;;;;;;13.80;7.18;;;;;;;17.50;100.00;102543.28;7380606;19;20014;-76
2022/07/18 00:08:37;;;;;;;12.45;6.40;;;;;;;17.47;100.00;102543.25;7379388;19;20054;-77
2022/07/18 00:11:07;;;;;;;14.05;6.38;;;;;;;17.42;100.00;102545.84;7380172;19;20020;-78
2022/07/18 00:13:41;;;;;;;13.60;7.32;;;;;;;17.39;100.00;102543.16;7383495;19;20119;-78
2022/07/18 00:16:14;;;;;;;15.45;7.93;;;;;;;17.37;100.00;102541.34;7378189;19;20360;-78
2022/07/18 00:18:45;;;;;;;15.07;7.47;;;;;;;17.33;100.00;102543.09;7381427;19;20080;-78
2022/07/18 00:21:15;;;;;;;16.02;7.50;;;;;;;17.29;100.00;102544.81;7380854;19;20018;-78
2022/07/18 00:23:45;;;;;;;15.38;6.97;;;;;;;17.26;100.00;102541.22;7379806;19;20114;-78
2022/07/18 00:26:15;;;;;;;19.58;8.45;;;;;;;17.24;100.00;102535.91;7381066;19;20037;-78
2022/07/18 00:28:48;;;;;;;16.73;7.38;;;;;;;17.19;100.00;102532.31;7380762;19;20332;-78
2022/07/18 00:31:18;;;;;;;14.82;7.18;;;;;;;17.17;100.00;102534.03;7381097;19;20098;-78
2022/07/18 00:33:48;;;;;;;14.80;6.85;;;;;;;17.14;100.00;102541.94;7381733;19;20327;-77
2022/07/18 00:36:18;;;;;;;16.73;7.97;;;;;;;17.10;100.00;102537.47;7381778;19;21378;-78
2022/07/18 00:38:48;;;;;;;14.60;7.28;;;;;;;17.07;100.00;102526.84;7382109;19;20013;-78
2022/07/18 00:41:18;;;;;;;15.35;7.78;;;;;;;17.05;100.00;102530.34;7379931;19;20014;-79
2022/07/18 00:43:51;;;;;;;15.80;8.18;;;;;;;16.99;100.00;102526.72;7382323;19;20006;-79
2022/07/18 00:46:26;;;;;;;14.55;7.05;;;;;;;16.95;100.00;102532.88;7379804;19;20506;-77
2022/07/18 00:48:57;;;;;;;14.63;6.70;;;;;;;16.88;100.00;102527.44;7379781;19;20074;-77
2022/07/18 00:51:27;;;;;;;17.02;7.55;;;;;;;16.83;100.00;102532.69;7380114;19;20035;-78
2022/07/18 00:53:57;;;;;;;14.18;7.00;;;;;;;16.77;100.00;102529.94;7381519;19;20015;-78
2022/07/18 00:56:27;;;;;;;15.32;7.38;;;;;;;16.73;100.00;102530.78;7384573;19;20039;-78
2022/07/18 00:59:00;;;;;;;17.00;6.70;;;;;;;16.68;100.00;102530.69;7385461;19;20046;-78
2022/07/18 01:04:15;;;;;;;21.10;7.38;;;;;;;16.63;100.00;102524.44;7383887;19;20014;-78
2022/07/18 01:06:45;;;;;;;16.58;6.82;;;;;;;16.58;100.00;102518.19;7387302;19;20023;-78
2022/07/18 01:09:15;;;;;;;16.50;7.55;;;;;;;16.57;100.00;102520.81;7390215;19;20006;-78
2022/07/18 01:11:46;;;;;;;17.45;8.40;;;;;;;16.53;100.00;102519.88;7378302;19;20018;-79
2022/07/18 01:14:21;;;;;;;15.60;7.43;;;;;;;16.52;100.00;102511.91;7390433;19;20022;-80
2022/07/18 01:16:52;;;;;;;16.40;7.78;;;;;;;16.52;100.00;102507.50;7390594;19;20406;-79
2022/07/18 01:19:25;;;;;;;16.88;7.57;;;;;;;16.51;100.00;102508.38;7387923;19;20011;-79
2022/07/18 01:21:57;;;;;;;17.08;7.72;;;;;;;16.48;100.00;102508.31;7386575;19;20040;-79
2022/07/18 01:24:27;;;;;;;17.73;6.95;;;;;;;16.45;100.00;102515.31;7381410;19;20343;-77
2022/07/18 01:26:57;;;;;;;14.43;6.97;;;;;;;16.41;100.00;102522.31;7383199;19;20011;-78
2022/07/18 01:29:28;;;;;;;18.90;8.50;;;;;;;16.37;100.00;102523.13;7376160;19;20014;-77
2022/07/18 01:31:58;;;;;;;17.60;7.28;;;;;;;16.34;100.00;102516.03;7379531;19;20490;-77
2022/07/18 01:34:28;;;;;;;17.92;7.43;;;;;;;16.33;100.00;102516.00;7378146;19;20010;-77
2022/07/18 01:37:00;;;;;;;15.77;7.13;;;;;;;16.28;100.00;102517.69;7378661;19;20431;-77
2022/07/18 01:39:30;;;;;;;17.48;8.18;;;;;;;16.27;100.00;102514.16;7376933;19;20466;-77
2022/07/18 01:42:01;;;;;;;21.38;7.78;;;;;;;16.27;100.00;102503.56;7377408;19;20679;-78
2022/07/18 01:44:32;;;;;;;19.65;7.68;;;;;;;16.23;100.00;102511.44;7384683;19;20010;-77
2022/07/18 01:47:03;;;;;;;17.88;6.88;;;;;;;16.18;100.00;102513.13;7387725;19;20413;-77
2022/07/18 01:49:34;;;;;;;16.42;7.18;;;;;;;16.16;100.00;102501.59;7382415;19;20047;-78
2022/07/18 01:52:08;;;;;;;18.50;7.28;;;;;;;16.12;100.00;102495.38;7383208;19;20040;-77
2022/07/18 01:54:39;;;;;;;16.55;7.38;;;;;;;16.09;100.00;102497.06;7383065;19;20122;-78
2022/07/18 01:57:11;;;;;;;15.38;6.78;;;;;;;16.07;100.00;102504.09;7386406;19;20014;-78
2022/07/18 01:59:41;;;;;;;16.13;7.10;;;;;;;16.01;100.00;102500.47;7383116;19;20023;-79
2022/07/18 02:02:11;;;;;;;16.10;7.60;;;;;;;15.95;100.00;102505.66;7384639;19;20003;-78
2022/07/18 02:07:42;;;;;;;16.08;6.72;;;;;;;15.89;100.00;102489.69;7382160;19;20039;-78
2022/07/18 02:10:15;;;;;;;16.80;7.18;;;;;;;15.87;100.00;102490.53;7382406;19;20025;-78
2022/07/18 02:12:45;;;;;;;15.82;7.82;;;;;;;15.87;100.00;102483.47;7383261;19;20010;-78
2022/07/18 02:15:16;;;;;;;14.13;6.15;;;;;;;15.84;100.00;102475.47;7384972;19;20007;-79
2022/07/18 02:17:46;;;;;;;17.40;6.90;;;;;;;15.82;100.00;102481.59;7384589;19;20070;-78
2022/07/18 02:20:17;;;;;;;18.77;7.47;;;;;;;15.80;100.00;102481.59;7384728;19;20023;-78
2022/07/18 02:22:50;;;;;;;15.55;6.40;;;;;;;15.78;100.00;102472.72;7380789;19;20011;-78
2022/07/18 02:25:21;;;;;;;17.45;7.18;;;;;;;15.77;100.00;102473.59;7384049;19;20011;-77
2022/07/18 02:27:51;;;;;;;16.55;7.38;;;;;;;15.76;100.00;102474.47;7385018;19;20336;-77
2022/07/18 02:30:21;;;;;;;14.50;7.00;;;;;;;15.71;100.00;102468.19;7379019;19;20043;-78
2022/07/18 02:32:51;;;;;;;15.35;7.50;;;;;;;15.70;100.00;102461.13;7383529;19;20018;-79
2022/07/18 02:35:21;;;;;;;14.73;6.15;;;;;;;15.68;100.00;102469.03;7383381;19;20006;-78
2022/07/18 02:37:57;;;;;;;16.25;6.72;;;;;;;15.66;100.00;102454.00;7382928;19;20040;-77
2022/07/18 02:40:27;;;;;;;14.05;6.20;;;;;;;15.64;100.00;102461.00;7383256;19;20074;-77
2022/07/18 02:42:57;;;;;;;17.02;6.72;;;;;;;15.61;100.00;102461.84;7384856;19;20010;-77
2022/07/18 02:45:27;;;;;;;17.35;6.75;;;;;;;15.56;100.00;102447.66;7383018;19;20010;-77
2022/07/18 02:47:58;;;;;;;19.10;6.53;;;;;;;15.56;100.00;102468.81;7381772;19;20006;-78
2022/07/18 02:50:29;;;;;;;17.10;6.25;;;;;;;15.53;100.00;102462.56;7381708;19;20025;-77
2022/07/18 02:53:01;;;;;;;15.25;6.53;;;;;;;15.51;100.00;102457.25;7380165;19;20002;-79
2022/07/18 02:55:32;;;;;;;15.82;6.78;;;;;;;15.50;100.00;102457.22;7380973;19;20022;-79
2022/07/18 02:58:03;;;;;;;18.30;6.95;;;;;;;15.49;100.00;102452.78;7383155;19;20043;-79
2022/07/18 03:00:34;;;;;;;16.13;6.65;;;;;;;15.47;100.00;102457.16;7382837;19;20425;-78
2022/07/18 03:03:03;;;;;;;16.30;6.88;;;;;;;15.46;100.00;102453.63;7380715;19;20015;-78
2022/07/18 03:05:34;;;;;;;16.88;6.28;;;;;;;15.46;100.00;102447.44;7383618;19;20420;-77
2022/07/18 03:08:07;;;;;;;16.38;6.38;;;;;;;15.43;100.00;102450.91;7382617;19;20051;-77
2022/07/18 03:10:38;;;;;;;16.17;6.25;;;;;;;15.41;100.00;102443.81;7379917;19;20011;-76
2022/07/18 03:13:10;;;;;;;15.02;6.32;;;;;;;15.40;100.00;102444.69;7383022;19;20040;-77
2022/07/18 03:15:46;;;;;;;13.70;6.43;;;;;;;15.36;100.00;102441.97;7380765;19;20011;-75
2022/07/18 03:18:17;;;;;;;14.10;6.05;;;;;;;15.33;100.00;102443.69;7379386;19;20394;-77
2022/07/18 03:20:47;;;;;;;15.48;5.63;;;;;;;15.34;100.00;102438.41;7380097;19;20018;-78
2022/07/18 03:23:19;;;;;;;17.15;6.68;;;;;;;15.32;100.00;102437.50;7381669;19;20010;-79
2022/07/18 03:25:52;;;;;;;16.90;6.70;;;;;;;15.29;100.00;102426.88;7381480;19;20018;-77
2022/07/18 03:28:22;;;;;;;15.88;6.82;;;;;;;15.30;100.00;102430.41;7379877;19;20044;-77
2022/07/18 03:30:52;;;;;;;14.85;7.47;;;;;;;15.26;100.00;102420.63;7380839;19;20474;-77
2022/07/18 03:33:22;;;;;;;13.88;6.85;;;;;;;15.24;100.00;102423.25;7379553;19;20014;-77
2022/07/18 03:35:52;;;;;;;16.75;6.63;;;;;;;15.23;100.00;102416.19;7381018;19;20014;-76
2022/07/18 03:38:28;;;;;;;15.13;7.47;;;;;;;15.20;100.00;102421.41;7380664;19;20013;-76
2022/07/18 03:40:58;;;;;;;15.43;6.05;;;;;;;15.17;100.00;102424.00;7380586;19;20007;-77
2022/07/18 03:43:28;;;;;;;14.68;7.03;;;;;;;15.14;100.00;102425.69;7379550;19;20007;-77
2022/07/18 03:45:58;;;;;;;16.83;6.85;;;;;;;15.10;100.00;102410.63;7381144;19;20036;-78
2022/07/18 03:48:28;;;;;;;14.75;6.68;;;;;;;15.08;100.00;102414.97;7382278;19;20282;-79
2022/07/18 03:50:58;;;;;;;15.85;6.68;;;;;;;15.04;100.00;102419.31;7380460;19;20134;-79
2022/07/18 03:53:32;;;;;;;16.45;6.97;;;;;;;15.03;100.00;102418.44;7375415;19;20014;-75
2022/07/18 03:56:04;;;;;;;18.60;7.13;;;;;;;15.00;100.00;102412.19;7383220;19;20049;-78
2022/07/18 03:58:37;;;;;;;17.15;6.28;;;;;;;15.01;100.00;102409.56;7383351;19;20015;-77
2022/07/18 04:01:07;;;;;;;14.85;6.97;;;;;;;15.05;100.00;102410.53;7380645;19;20082;-77
2022/07/18 04:03:40;;;;;;;19.83;7.65;;;;;;;15.08;100.00;102410.59;7384187;19;20473;-77
2022/07/18 04:06:11;;;;;;;18.70;7.15;;;;;;;15.08;100.00;102405.31;7380657;19;20024;-77
2022/07/18 04:08:44;;;;;;;18.45;7.10;;;;;;;15.09;100.00;102404.44;7383738;19;20031;-77
2022/07/18 04:11:14;;;;;;;16.55;6.88;;;;;;;15.12;100.00;102406.25;7382089;19;20023;-77
2022/07/18 04:13:51;;;;;;;16.77;6.95;;;;;;;15.14;100.00;102409.81;7384771;19;20018;-77
2022/07/18 04:16:21;;;;;;;19.02;6.97;;;;;;;15.13;100.00;102400.13;7384482;19;20532;-78
2022/07/18 04:18:54;;;;;;;15.23;6.35;;;;;;;15.15;100.00;102401.03;7385630;19;20014;-77
2022/07/18 04:21:24;;;;;;;20.40;7.15;;;;;;;15.19;100.00;102400.22;7389596;19;20487;-77
2022/07/18 04:23:57;;;;;;;19.10;7.25;;;;;;;15.20;100.00;102408.19;7392864;19;20006;-77
2022/07/18 04:26:27;;;;;;;18.00;7.43;;;;;;;15.22;100.00;102405.56;7392311;19;20371;-79
2022/07/18 04:28:57;;;;;;;19.45;7.90;;;;;;;15.23;100.00;102404.72;7390753;19;20041;-78
2022/07/18 04:31:27;;;;;;;21.55;7.95;;;;;;;15.22;100.00;102397.66;7389807;19;20118;-79
2022/07/18 04:33:57;;;;;;;15.25;7.20;;;;;;;15.24;100.00;102396.81;7388028;19;20025;-78
2022/07/18 04:36:27;;;;;;;19.48;7.15;;;;;;;15.24;100.00;102391.53;7387741;19;20014;-78
2022/07/18 04:38:59;;;;;;;18.95;8.45;;;;;;;15.25;100.00;102392.41;7385266;19;20010;-75
2022/07/18 04:41:29;;;;;;;20.75;8.45;;;;;;;15.26;100.00;102392.44;7388069;19;20043;-75
2022/07/18 04:44:04;;;;;;;31.50;10.45;;;;;;;15.32;100.00;102395.19;7387437;19;20015;-76
2022/07/18 04:46:35;;;;;;;31.80;11.63;;;;;;;15.35;100.00;102395.25;7381452;19;20021;-76
2022/07/18 04:49:05;;;;;;;19.70;8.55;;;;;;;15.40;100.00;102405.03;7378456;19;20007;-77
2022/07/18 04:51:35;;;;;;;17.60;6.95;;;;;;;15.45;100.00;102413.94;7375902;19;20018;-76
2022/07/18 04:54:08;;;;;;;19.33;7.13;;;;;;;15.52;100.00;102405.25;7377105;19;20011;-76
2022/07/18 04:56:38;;;;;;;19.63;8.80;;;;;;;15.58;100.00;102402.75;7375018;19;20011;-77
2022/07/18 04:59:08;;;;;;;18.08;7.05;;;;;;;15.67;100.00;102402.88;7378786;19;20048;-77
2022/07/18 05:01:38;;;;;;;16.38;6.65;;;;;;;15.81;100.00;102405.75;7378483;19;20007;-77
2022/07/18 05:04:08;;;;;;;14.80;6.40;;;;;;;16.01;100.00;102414.91;7379830;19;20029;-77
2022/07/18 05:06:38;;;;;;;14.65;6.00;;;;;;;16.20;100.00;102411.69;7378601;19;20011;-76
2022/07/18 05:09:12;;;;;;;15.65;7.28;;;;;;;16.42;100.00;102409.34;7378223;19;20230;-77
2022/07/18 05:11:50;;;;;;;14.30;6.20;;;;;;;16.64;100.00;102414.97;7378204;19;20068;-77
2022/07/18 05:14:23;;;;;;;16.73;5.95;;;;;;;16.88;100.00;102402.91;7376584;19;20606;-76
2022/07/18 05:16:53;;;;;;;17.45;6.97;;;;;;;17.18;99.20;102403.25;7380117;19;20015;-77
2022/07/18 05:19:25;;;;;;;15.15;6.43;;;;;;;17.44;97.71;102400.88;7376947;19;20016;-77
2022/07/18 05:21:56;;;;;;;14.10;6.40;;;;;;;17.72;97.49;102399.38;7374831;19;20458;-77
2022/07/18 05:24:29;;;;;;;19.77;6.65;;;;;;;18.00;93.05;102394.28;7376862;19;20658;-77
2022/07/18 05:26:59;;;;;;;16.48;6.88;;;;;;;18.23;93.23;102400.63;7377360;19;20383;-77
2022/07/18 05:29:29;;;;;;;15.93;6.75;;;;;;;18.47;89.14;102400.78;7378605;19;20483;-77
2022/07/18 05:32:00;;;;;;;20.70;7.28;;;;;;;18.71;87.65;102400.06;7376146;19;20447;-77
2022/07/18 05:34:32;;;;;;;16.80;6.80;;;;;;;18.92;85.61;102399.22;7377277;19;20011;-76
2022/07/18 05:37:02;;;;;;;15.95;6.63;;;;;;;19.12;83.93;102396.63;7378607;19;20084;-77
2022/07/18 05:39:35;;;;;;;15.32;6.65;;;;;;;19.35;83.07;102388.69;7378810;19;20492;-77
2022/07/18 05:42:06;;;;;;;15.93;6.15;;;;;;;19.57;83.48;102390.53;7378631;19;20160;-77
2022/07/18 05:44:36;;;;;;;16.50;6.20;;;;;;;19.87;79.47;102390.50;7378488;19;20014;-78
2022/07/18 05:47:06;;;;;;;15.63;6.45;;;;;;;20.05;78.25;102383.41;7378367;19;20007;-78
2022/07/18 05:49:37;;;;;;;10.80;5.43;;;;;;;20.27;75.69;102385.13;7378552;19;20036;-78
2022/07/18 05:52:08;;;;;;;14.95;6.50;;;;;;;20.56;75.67;102377.97;7373531;19;20010;-79
2022/07/18 05:54:40;;;;;;;15.20;5.68;;;;;;;20.72;73.70;102376.13;7377346;19;20109;-79
2022/07/18 05:57:11;;;;;;;15.20;6.07;;;;;;;21.05;71.58;102368.81;7379470;19;20396;-78
2022/07/18 05:59:40;;;;;;;15.27;5.88;;;;;;;21.08;68.12;102364.34;7378470;19;20049;-77
2022/07/18 06:02:11;;;;;;;14.05;4.95;;;;;;;21.38;68.13;102357.09;7379979;19;20051;-78
2022/07/18 06:04:40;;;;;;;13.63;6.13;;;;;;;21.44;66.13;102365.03;7377610;19;20055;-77
2022/07/18 06:07:31;;;;;;;14.80;5.05;;;;;;;21.84;66.16;102368.22;7379041;19;20108;-77
2022/07/18 06:10:04;;;;;;;13.45;6.05;;;;;;;22.08;65.56;102369.81;7380748;19;20051;-77
2022/07/18 06:12:35;;;;;;;16.15;5.45;;;;;;;22.23;63.47;102371.44;7378194;19;20093;-78
2022/07/18 06:15:07;;;;;;;12.63;5.43;;;;;;;22.55;62.80;102360.38;7383947;19;20067;-77
2022/07/18 06:17:37;;;;;;;16.42;5.25;;;;;;;22.95;63.13;102361.63;7383089;19;20011;-78
2022/07/18 06:20:11;;;;;;;16.27;5.80;;;;;;;22.88;62.28;102359.94;7381074;19;20018;-78
2022/07/18 06:22:41;;;;;;;13.30;5.60;;;;;;;22.77;62.11;102354.75;7377538;19;20687;-78
2022/07/18 06:25:14;;;;;;;13.45;5.45;;;;;;;22.83;60.36;102356.50;7381000;19;20090;-79
2022/07/18 06:27:44;;;;;;;11.23;5.35;;;;;;;23.24;60.38;102357.66;7378509;19;20014;-78
2022/07/18 06:30:15;;;;;;;11.55;5.30;;;;;;;23.55;59.77;102358.09;7383422;19;20011;-79
2022/07/18 06:32:45;;;;;;;13.55;5.28;;;;;;;23.67;57.06;102348.06;7382276;19;20318;-78
2022/07/18 06:35:15;;;;;;;12.88;4.97;;;;;;;23.92;55.57;102355.66;7385967;19;20015;-77
2022/07/18 06:37:46;;;;;;;8.77;4.70;;;;;;;24.21;55.05;102355.97;7386654;19;20024;-79
2022/07/18 06:40:19;;;;;;;9.38;4.97;;;;;;;23.82;53.43;102354.94;7386681;19;20492;-78
2022/07/18 06:42:50;;;;;;;9.57;4.32;;;;;;;24.26;54.30;102353.22;7386577;19;20017;-77
2022/07/18 06:45:20;;;;;;;11.93;4.68;;;;;;;24.62;52.91;102352.47;7382463;19;20027;-77
2022/07/18 06:47:50;;;;;;;12.30;4.55;;;;;;;24.70;50.59;102355.88;7382958;19;20018;-79
2022/07/18 06:50:21;;;;;;;9.07;3.90;;;;;;;24.80;49.99;102356.56;7381985;19;20058;-77
2022/07/18 06:52:54;;;;;;;11.05;4.88;;;;;;;24.89;49.52;102359.03;7378919;19;20014;-77
2022/07/18 06:55:26;;;;;;;14.52;4.68;;;;;;;25.16;48.53;102364.72;7383379;19;20003;-77
2022/07/18 06:57:56;;;;;;;13.77;4.20;;;;;;;25.08;48.64;102359.50;7382836;19;20032;-77
2022/07/18 07:00:26;;;;;;;9.07;3.95;;;;;;;25.17;47.75;102353.06;7380958;19;20409;-77
2022/07/18 07:02:56;;;;;;;13.40;4.72;;;;;;;25.58;48.24;102347.56;7388090;19;20017;-78
2022/07/18 07:05:27;;;;;;;9.88;4.35;;;;;;;25.43;47.34;102348.81;7381904;19;20013;-79
2022/07/18 07:07:58;;;;;;;9.93;4.22;;;;;;;25.49;46.86;102346.91;7384790;19;20338;-79
2022/07/18 07:10:31;;;;;;;12.63;4.70;;;;;;;25.57;45.70;102340.41;7383504;19;20013;-78
2022/07/18 07:13:02;;;;;;;13.10;4.57;;;;;;;25.65;45.67;102335.75;7379335;19;20113;-79
2022/07/18 07:15:32;;;;;;;8.77;4.15;;;;;;;26.17;45.64;102342.41;7387225;19;20014;-79
2022/07/18 07:18:02;;;;;;;14.52;4.13;;;;;;;26.70;44.82;102348.94;7386403;19;20015;-80
2022/07/18 07:20:33;;;;;;;12.48;4.50;;;;;;;26.86;44.91;102338.59;7383553;19;20057;-79
2022/07/18 07:23:07;;;;;;;15.45;4.75;;;;;;;26.92;43.59;102343.78;7382939;19;20031;-79
2022/07/18 07:25:40;;;;;;;13.48;4.68;;;;;;;27.28;43.68;102351.63;7385650;19;20010;-80
2022/07/18 07:28:13;;;;;;;12.82;4.38;;;;;;;27.04;41.96;102335.31;7386410;19;20077;-77
2022/07/18 07:30:43;;;;;;;11.82;4.60;;;;;;;27.25;42.67;102341.84;7388094;19;20048;-78
2022/07/18 07:33:14;;;;;;;12.98;4.55;;;;;;;27.38;42.65;102339.63;7383604;19;20010;-80
2022/07/18 07:35:44;;;;;;;15.15;5.07;;;;;;;27.34;41.61;102343.34;7384119;19;20027;-75
2022/07/18 07:38:22;;;;;;;11.48;4.65;;;;;;;27.76;41.22;102342.88;7380977;19;20090;-75
2022/07/18 07:40:57;;;;;;;10.90;5.53;;;;;;;27.48;40.68;102342.88;7385025;19;20006;-75
2022/07/18 07:43:27;;;;;;;14.63;5.25;;;;;;;27.63;39.80;102345.97;7383029;19;20018;-76
2022/07/18 07:45:58;;;;;;;12.93;4.40;;;;;;;27.89;39.42;102338.81;7389237;19;20657;-79
2022/07/18 07:48:28;;;;;;;12.60;4.78;;;;;;;27.89;39.01;102333.41;7389692;19;20342;-79
2022/07/18 07:50:59;;;;;;;11.30;5.57;;;;;;;27.73;39.71;102338.47;7388505;19;20479;-78
2022/07/18 07:53:30;;;;;;;13.00;4.60;;;;;;;27.90;39.10;102335.19;7383910;19;20025;-79
2022/07/18 07:56:02;;;;;;;12.07;4.65;;;;;;;28.36;39.03;102328.09;7388853;19;20014;-77
2022/07/18 07:58:32;;;;;;;13.50;5.28;;;;;;;28.44;38.42;102337.69;7385757;19;20014;-75
2022/07/18 08:01:03;;;;;;;10.35;4.70;;;;;;;28.64;37.65;102340.50;7384076;19;20011;-75
2022/07/18 08:03:33;;;;;;;10.48;4.65;;;;;;;29.09;36.69;102336.94;7382643;19;20010;-75
2022/07/18 08:06:03;;;;;;;10.77;4.80;;;;;;;29.06;36.38;102330.78;7383944;19;20006;-75
2022/07/18 08:08:33;;;;;;;14.70;4.90;;;;;;;29.47;35.70;102332.66;7385208;19;20035;-76
2022/07/18 08:11:06;;;;;;;11.35;4.68;;;;;;;29.86;35.94;102331.91;7379899;19;20015;-75
2022/07/18 08:13:35;;;;;;;;;;;;;;;29.87;34.86;102328.25;7379051;19;20023;-77
2022/07/18 08:16:06;;;;;;;12.85;4.70;;;;;;;30.02;33.91;102327.59;7381608;19;20368;-76
2022/07/18 08:18:36;;;;;;;10.32;4.90;;;;;;;30.26;34.10;102321.03;7381344;19;20027;-76
2022/07/18 08:21:06;;;;;;;11.20;4.95;;;;;;;30.52;34.13;102324.38;7377151;19;20018;-77
2022/07/18 08:23:36;;;;;;;13.70;5.20;;;;;;;30.33;33.14;102312.66;7377794;19;20027;-76
2022/07/18 08:26:09;;;;;;;9.90;4.85;;;;;;;30.62;33.28;102314.91;7375886;19;20006;-77
2022/07/18 08:28:39;;;;;;;12.27;4.90;;;;;;;30.62;33.98;102317.59;7375304;19;20018;-77
2022/07/18 08:31:12;;;;;;;10.13;5.28;;;;;;;30.38;34.75;102322.31;7376232;19;20010;-78
2022/07/18 08:33:42;;;;;;;10.60;4.72;;;;;;;30.79;33.40;102319.50;7377026;19;20359;-77
2022/07/18 08:36:13;;;;;;;12.43;4.90;;;;;;;30.87;32.95;102325.44;7378796;19;20011;-77
2022/07/18 08:38:43;;;;;;;10.05;4.70;;;;;;;30.78;32.35;102323.16;7375990;19;20003;-78
2022/07/18 08:41:19;;;;;;;9.40;3.88;;;;;;;30.73;32.12;102314.38;7379340;19;20018;-78
2022/07/18 08:43:51;;;;;;;12.80;4.68;;;;;;;30.69;32.24;102316.38;7375115;19;20036;-77
2022/07/18 08:46:23;;;;;;;9.13;4.17;;;;;;;31.29;32.39;102322.44;7377855;19;20077;-77
2022/07/18 08:48:55;;;;;;;14.55;4.85;;;;;;;31.27;31.67;102323.47;7375296;19;20010;-75
2022/07/18 08:51:26;;;;;;;11.55;4.10;;;;;;;31.57;31.64;102316.50;7379118;19;20215;-76
2022/07/18 08:53:58;;;;;;;10.45;4.75;;;;;;;31.37;31.38;102325.66;7372464;19;20069;-75
2022/07/18 08:56:34;;;;;;;10.60;4.47;;;;;;;31.55;31.25;102327.41;7376199;19;20035;-76
2022/07/18 08:59:05;;;;;;;10.55;4.68;;;;;;;31.47;31.96;102326.06;7376638;19;20018;-76
2022/07/18 09:01:35;;;;;;;11.63;4.95;;;;;;;31.08;31.01;102324.38;7375938;19;20074;-73
2022/07/18 09:04:19;;;;;;;10.75;4.47;;;;;;;31.63;31.33;102328.84;7377684;19;20010;-77
2022/07/18 09:06:52;;;;;;;11.07;5.03;;;;;;;31.44;30.88;102328.94;7378791;19;20026;-78
2022/07/18 09:09:22;;;;;;;11.27;4.60;;;;;;;31.63;31.90;102324.31;7379698;19;20302;-78
2022/07/18 09:11:57;;;;;;;11.07;4.85;;;;;;;31.61;31.68;102322.63;7378923;19;20293;-79
2022/07/18 09:14:38;;;;;;;11.13;4.50;;;;;;;31.50;31.68;102325.91;7376873;19;20025;-77
2022/07/18 09:17:11;;;;;;;11.45;4.55;;;;;;;31.85;31.84;102321.41;7378965;19;20011;-76
2022/07/18 09:19:45;;;;;;;9.48;4.20;;;;;;;31.86;30.70;102325.88;7376082;19;20018;-76
2022/07/18 09:22:24;;;;;;;11.43;4.90;;;;;;;32.23;31.67;102322.09;7378300;19;20425;-75
2022/07/18 09:24:57;;;;;;;9.27;4.50;;;;;;;32.48;30.65;102321.59;7376694;19;20117;-76
2022/07/18 09:27:34;;;;;;;11.50;4.95;;;;;;;31.82;30.41;102322.44;7378627;19;20007;-75
2022/07/18 09:30:15;;;;;;;15.18;5.00;;;;;;;32.13;30.47;102313.53;7379324;19;20014;-78
2022/07/18 09:32:49;;;;;;;11.20;5.20;;;;;;;32.55;29.91;102316.69;7378513;19;20016;-76
2022/07/18 09:35:22;;;;;;;10.30;4.32;;;;;;;32.35;31.18;102315.09;7377868;19;20015;-76
2022/07/18 09:37:56;;;;;;;8.65;4.03;;;;;;;32.34;30.99;102314.22;7374353;19;20678;-73
2022/07/18 09:40:28;;;;;;;10.75;3.97;;;;;;;32.92;29.72;102299.22;7377796;19;20015;-76
2022/07/18 09:43:04;;;;;;;8.50;4.32;;;;;;;32.85;29.49;102305.97;7379206;19;20015;-77
2022/07/18 09:45:37;;;;;;;9.38;4.05;;;;;;;32.96;30.66;102295.34;7377946;19;20010;-76
2022/07/18 09:48:12;;;;;;;9.70;4.55;;;;;;;33.05;29.73;102297.53;7377247;19;20034;-76
2022/07/18 09:50:55;;;;;;;11.07;4.80;;;;;;;32.82;29.74;102302.47;7377171;19;20015;-79
2022/07/18 09:53:26;;;;;;;13.13;4.50;;;;;;;32.96;30.19;102300.78;7373704;19;20038;-76
2022/07/18 09:56:06;;;;;;;9.48;4.07;;;;;;;32.68;29.26;102302.34;7376577;19;20037;-75
2022/07/18 09:58:41;;;;;;;8.13;3.65;;;;;;;32.64;29.60;102302.59;7374396;19;20026;-76
2022/07/18 10:01:14;;;;;;;9.35;4.10;;;;;;;33.12;29.61;102288.06;7374299;19;20010;-77
2022/07/18 10:03:45;;;;;;;10.30;4.45;;;;;;;33.16;28.92;102292.34;7375491;19;20019;-75
2022/07/18 10:06:18;;;;;;;6.97;3.42;;;;;;;33.36;29.01;102300.22;7384457;19;20017;-77
2022/07/18 10:08:51;;;;;;;8.70;3.67;;;;;;;33.41;28.66;102295.38;7383229;19;20013;-76
2022/07/18 10:11:21;;;;;;;10.48;4.20;;;;;;;32.85;28.09;102289.66;7385328;19;20535;-77
2022/07/18 10:13:57;;;;;;;8.65;3.78;;;;;;;33.33;28.52;102294.94;7384272;19;20045;-77
2022/07/18 10:16:29;;;;;;;10.57;4.75;;;;;;;33.58;28.97;102288.03;7384912;19;20372;-77
2022/07/18 10:19:00;;;;;;;8.52;4.07;;;;;;;33.24;27.00;102287.34;7382428;19;20015;-77
2022/07/18 10:21:32;;;;;;;7.88;3.85;;;;;;;32.78;27.19;102286.44;7383782;19;20015;-78
2022/07/18 10:24:06;;;;;;;8.10;3.97;;;;;;;32.80;27.34;102288.09;7385231;19;20021;-75
2022/07/18 10:26:37;;;;;;;8.70;3.88;;;;;;;33.32;28.13;102276.88;7382494;19;20018;-76
2022/07/18 10:29:19;;;;;;;7.95;3.55;;;;;;;33.85;28.63;102290.94;7384376;19;20022;-77
2022/07/18 10:32:08;;;;;;;9.32;4.28;;;;;;;34.28;27.28;102283.69;7384807;19;20019;-77
2022/07/18 10:34:43;;;;;;;10.27;3.88;;;;;;;34.27;27.07;102281.94;7380917;19;20014;-77
2022/07/18 10:37:16;;;;;;;9.23;4.10;;;;;;;34.47;27.01;102291.53;7384722;19;20550;-76
2022/07/18 10:39:50;;;;;;;10.38;4.15;;;;;;;34.13;24.75;102284.66;7385903;19;20094;-78
2022/07/18 10:42:24;;;;;;;9.10;4.13;;;;;;;33.98;24.15;102276.47;7383862;19;20014;-78
2022/07/18 10:44:57;;;;;;;7.80;3.97;;;;;;;34.12;24.24;102272.88;7381753;19;20007;-77
2022/07/18 10:47:31;;;;;;;11.00;4.00;;;;;;;34.35;24.97;102279.59;7385083;19;20312;-78
2022/07/18 10:50:13;;;;;;;8.38;3.95;;;;;;;34.55;22.72;102276.44;7379306;19;20036;-76
2022/07/18 10:52:59;;;;;;;7.90;3.90;;;;;;;33.54;24.23;102270.16;7378505;19;20537;-76
2022/07/18 10:55:33;;;;;;;8.15;3.80;;;;;;;33.99;23.66;102278.22;7377319;19;20351;-78
2022/07/18 10:58:24;;;;;;;13.52;4.05;;;;;;;34.75;24.07;102272.41;7382321;19;20752;-77
2022/07/18 11:01:08;;;;;;;11.20;3.88;;;;;;;34.43;23.62;102278.13;7377450;19;20006;-75
2022/07/18 11:03:40;;;;;;;8.95;3.85;;;;;;;34.72;23.22;102276.22;7380952;19;20392;-75
2022/07/18 11:06:10;;;;;;;7.78;3.63;;;;;;;34.39;23.48;102270.25;7381868;19;20570;-74
2022/07/18 11:08:44;;;;;;;9.13;3.58;;;;;;;34.43;23.88;102267.22;7382755;19;20022;-76
2022/07/18 11:11:17;;;;;;;8.05;3.90;;;;;;;34.55;23.21;102270.13;7380025;19;20014;-77
2022/07/18 11:13:51;;;;;;;9.38;4.07;;;;;;;35.08;22.55;102269.31;7384728;19;20011;-76
2022/07/18 11:16:27;;;;;;;6.38;3.50;;;;;;;34.96;22.91;102270.16;7381004;19;20054;-75
2022/07/18 11:19:19;;;;;;;8.93;4.38;;;;;;;35.50;23.26;102264.63;7383904;19;20827;-75
2022/07/18 11:22:00;;;;;;;10.65;4.40;;;;;;;35.38;24.68;102267.22;7383316;19;20011;-75
2022/07/18 11:24:30;;;;;;;9.32;4.43;;;;;;;34.86;24.78;102264.44;7382376;19;20184;-76
2022/07/18 11:27:00;;;;;;;9.80;4.38;;;;;;;34.18;24.72;102264.31;7384938;19;20250;-76
2022/07/18 11:29:31;;;;;;;8.75;4.15;;;;;;;34.35;25.36;102265.97;7381674;19;20035;-76
2022/07/18 11:32:04;;;;;;;9.85;4.22;;;;;;;34.67;24.30;102253.84;7381430;19;20010;-76
2022/07/18 11:34:35;;;;;;;7.38;4.03;;;;;;;34.83;24.67;102252.88;7382399;19;20098;-77
2022/07/18 11:37:18;;;;;;;7.45;3.90;;;;;;;34.75;24.74;102259.66;7389134;19;20018;-81
2022/07/18 11:39:52;;;;;;;7.82;3.85;;;;;;;35.25;26.28;102249.97;7394498;19;20035;-79
2022/07/18 11:42:37;;;;;;;10.48;4.53;;;;;;;34.60;24.83;102246.19;7385166;19;20294;-80